createdAt,value
2022-09-28T00:01:11.430Z,96317.47
2022-09-28T00:03:39.609Z,96316.09
2022-09-28T00:06:09.940Z,96310.69
2022-09-28T00:08:38.318Z,96305.66
2022-09-28T00:11:11.210Z,96311.06
2022-09-28T00:13:40.435Z,96314.28
2022-09-28T00:16:11.456Z,96314.06
2022-09-28T00:18:39.711Z,96315.84
2022-09-28T00:21:10.150Z,96309.19
2022-09-28T00:24:00.007Z,96318.88
2022-09-28T00:26:30.802Z,96311.31
2022-09-28T00:29:00.806Z,96303.72
2022-09-28T00:31:31.807Z,96294.75
2022-09-28T00:34:00.545Z,96281.22
2022-09-28T00:36:29.915Z,96287.03
2022-09-28T00:38:58.436Z,96296.00
2022-09-28T00:41:29.712Z,96305.34
2022-09-28T00:44:33.354Z,96294.88
2022-09-28T00:47:03.674Z,96293.66
2022-09-28T00:49:35.229Z,96288.19
2022-09-28T00:52:05.172Z,96297.88
2022-09-28T00:54:33.514Z,96297.13
2022-09-28T00:57:04.322Z,96298.81
2022-09-28T00:59:33.059Z,96303.19
2022-09-28T01:02:01.840Z,96304.13
2022-09-28T01:04:31.437Z,96308.28
2022-09-28T01:07:00.521Z,96311.66
2022-09-28T01:09:29.245Z,96305.66
2022-09-28T01:11:57.483Z,96306.63
2022-09-28T01:14:27.638Z,96302.84
2022-09-28T01:17:01.990Z,96303.63
2022-09-28T01:20:06.065Z,96303.88
2022-09-28T01:23:23.467Z,96304.25
2022-09-28T01:25:54.987Z,96315.00
2022-09-28T01:28:26.930Z,96316.19
2022-09-28T01:31:03.399Z,96310.34
2022-09-28T01:33:36.619Z,96306.19
2022-09-28T01:36:09.007Z,96299.38
2022-09-28T01:38:40.774Z,96293.47
2022-09-28T01:41:10.746Z,96294.34
2022-09-28T01:43:42.158Z,96284.97
2022-09-28T01:46:14.154Z,96295.25
2022-09-28T01:48:45.910Z,96284.19
2022-09-28T01:51:18.551Z,96293.63
2022-09-28T01:53:50.409Z,96285.94
2022-09-28T01:56:24.739Z,96282.56
2022-09-28T01:58:56.557Z,96288.53
2022-09-28T02:01:29.566Z,96288.44
2022-09-28T02:04:01.693Z,96295.13
2022-09-28T02:06:33.311Z,96289.13
2022-09-28T02:09:04.914Z,96302.81
2022-09-28T02:11:46.675Z,96283.19
2022-09-28T02:14:17.565Z,96273.84
2022-09-28T02:16:48.786Z,96274.41
2022-09-28T02:19:19.704Z,96272.91
2022-09-28T02:21:55.646Z,96261.94
2022-09-28T02:24:26.289Z,96264.59
2022-09-28T02:26:56.273Z,96269.78
2022-09-28T02:29:26.256Z,96262.88
2022-09-28T02:31:54.766Z,96269.66
2022-09-28T02:34:23.042Z,96262.88
2022-09-28T02:36:51.489Z,96262.88
2022-09-28T02:39:20.157Z,96266.31
2022-09-28T02:41:55.979Z,96270.53
2022-09-28T02:45:01.986Z,96267.97
2022-09-28T02:47:39.780Z,96270.59
2022-09-28T02:50:14.193Z,96264.56
2022-09-28T02:52:57.771Z,96268.88
2022-09-28T02:55:35.012Z,96259.59
2022-09-28T02:58:15.292Z,96258.72
2022-09-28T03:00:47.478Z,96267.19
2022-09-28T03:03:19.992Z,96274.91
2022-09-28T03:05:54.566Z,96269.59
2022-09-28T03:08:25.776Z,96281.53
2022-09-28T03:10:57.893Z,96265.38
2022-09-28T03:13:26.546Z,96273.97
2022-09-28T03:16:08.652Z,96274.03
2022-09-28T03:18:37.136Z,96268.94
2022-09-28T03:21:06.201Z,96265.59
2022-09-28T03:23:34.711Z,96261.38
2022-09-28T03:26:03.476Z,96257.97
2022-09-28T03:28:32.015Z,96245.22
2022-09-28T03:31:01.769Z,96241.81
2022-09-28T03:33:30.250Z,96243.56
2022-09-28T03:35:58.489Z,96250.41
2022-09-28T03:38:26.749Z,96246.97
2022-09-28T03:40:56.347Z,96245.19
2022-09-28T03:43:25.430Z,96247.72
2022-09-28T03:45:56.723Z,96248.63
2022-09-28T03:48:32.109Z,96252.09
2022-09-28T03:51:02.309Z,96252.13
2022-09-28T03:53:30.998Z,96235.06
2022-09-28T03:56:05.036Z,96243.59
2022-09-28T03:58:34.109Z,96244.44
2022-09-28T04:01:03.873Z,96246.16
2022-09-28T04:03:34.020Z,96242.72
2022-09-28T04:06:02.588Z,96244.44
2022-09-28T04:08:30.969Z,96242.75
2022-09-28T04:11:00.568Z,96232.50
2022-09-28T04:13:29.904Z,96229.13
2022-09-28T04:16:02.247Z,96230.81
2022-09-28T04:18:35.323Z,96236.81
2022-09-28T04:21:07.886Z,96221.44
2022-09-28T04:23:41.629Z,96224.00
2022-09-28T04:26:16.733Z,96222.28
2022-09-28T04:29:06.354Z,96216.31
2022-09-28T04:31:39.482Z,96224.84
2022-09-28T04:34:09.593Z,96219.72
2022-09-28T04:36:37.933Z,96220.56
2022-09-28T04:39:06.555Z,96223.94
2022-09-28T04:41:35.249Z,96217.81
2022-09-28T04:44:03.673Z,96217.88
2022-09-28T04:46:32.133Z,96222.22
2022-09-28T04:49:25.574Z,96230.75
2022-09-28T04:51:55.371Z,96229.91
2022-09-28T04:54:23.592Z,96226.41
2022-09-28T04:56:52.993Z,96237.63
2022-09-28T04:59:21.403Z,96241.06
2022-09-28T05:01:50.420Z,96249.59
2022-09-28T05:04:38.491Z,96254.72
2022-09-28T05:07:26.930Z,96251.31
2022-09-28T05:09:56.325Z,96248.75
2022-09-28T05:12:24.693Z,96247.06
2022-09-28T05:14:52.948Z,96241.94
2022-09-28T05:17:21.274Z,96246.16
2022-09-28T05:20:17.025Z,96255.50
2022-09-28T05:22:45.765Z,96258.03
2022-09-28T05:25:14.465Z,96258.84
2022-09-28T05:27:57.091Z,96254.47
2022-09-28T05:30:38.317Z,96246.66
2022-09-28T05:33:25.102Z,96251.75
2022-09-28T05:36:21.403Z,96244.84
2022-09-28T05:38:49.734Z,96249.06
2022-09-28T05:41:18.015Z,96255.97
2022-09-28T05:43:46.811Z,96245.63
2022-09-28T05:46:15.697Z,96246.50
2022-09-28T05:48:44.022Z,96241.44
2022-09-28T05:51:12.399Z,96240.50
2022-09-28T05:53:42.017Z,96231.06
2022-09-28T05:56:10.779Z,96225.13
2022-09-28T05:58:43.334Z,96215.59
2022-09-28T06:01:12.653Z,96208.72
2022-09-28T06:03:41.024Z,96195.97
2022-09-28T06:06:09.297Z,96198.47
2022-09-28T06:08:38.828Z,96195.09
2022-09-28T06:11:27.892Z,96199.25
2022-09-28T06:13:58.467Z,96200.13
2022-09-28T06:16:29.928Z,96190.81
2022-09-28T06:18:58.323Z,96196.50
2022-09-28T06:21:58.350Z,96183.41
2022-09-28T06:24:27.698Z,96180.00
2022-09-28T06:26:57.494Z,96178.53
2022-09-28T06:29:27.111Z,96174.31
2022-09-28T06:31:56.243Z,96181.13
2022-09-28T06:34:24.927Z,96186.06
2022-09-28T06:36:53.825Z,96175.72
2022-09-28T06:39:22.404Z,96188.44
2022-09-28T06:41:52.632Z,96191.69
2022-09-28T06:44:25.235Z,96195.88
2022-09-28T06:47:19.763Z,96184.75
2022-09-28T06:50:17.278Z,96182.75
2022-09-28T06:53:00.558Z,96180.19
2022-09-28T06:55:49.247Z,96178.91
2022-09-28T06:58:20.869Z,96172.97
2022-09-28T07:00:52.457Z,96162.63
2022-09-28T07:03:22.477Z,96165.78
2022-09-28T07:06:04.801Z,96158.47
2022-09-28T07:09:22.894Z,96149.34
2022-09-28T07:12:14.463Z,96156.47
2022-09-28T07:14:56.423Z,96139.56
2022-09-28T07:17:28.551Z,96135.69
2022-09-28T07:20:10.705Z,96123.56
2022-09-28T07:22:45.420Z,96113.66
2022-09-28T07:25:19.527Z,96097.63
2022-09-28T07:27:59.738Z,96092.91
2022-09-28T07:31:03.746Z,96100.72
2022-09-28T07:34:03.164Z,96092.75
2022-09-28T07:36:39.230Z,96095.03
2022-09-28T07:39:07.784Z,96090.13
2022-09-28T07:41:36.334Z,96089.44
2022-09-28T07:44:07.691Z,96096.78
2022-09-28T07:46:38.162Z,96096.47
2022-09-28T07:49:19.436Z,96087.16
2022-09-28T07:52:10.838Z,96076.31
2022-09-28T07:54:52.340Z,96075.91
2022-09-28T07:57:56.320Z,96076.09
2022-09-28T08:01:01.230Z,96080.88
2022-09-28T08:03:30.477Z,96072.88
2022-09-28T08:06:01.188Z,96078.84
2022-09-28T08:08:30.267Z,96083.91
2022-09-28T08:10:59.863Z,96075.84
2022-09-28T08:14:06.719Z,96082.56
2022-09-28T08:16:55.527Z,96073.63
2022-09-28T08:19:51.185Z,96071.78
2022-09-28T08:22:21.878Z,96066.06
2022-09-28T08:24:52.863Z,96070.16
2022-09-28T08:27:21.316Z,96071.94
2022-09-28T08:29:49.832Z,96072.31
2022-09-28T08:32:37.247Z,96072.00
2022-09-28T08:35:26.493Z,96059.22
2022-09-28T08:38:19.438Z,96058.16
2022-09-28T08:40:58.867Z,96054.91
2022-09-28T08:44:04.564Z,96045.28
2022-09-28T08:46:48.266Z,96041.28
2022-09-28T08:49:38.555Z,96041.75
2022-09-28T08:52:19.227Z,96027.44
2022-09-28T08:55:10.206Z,96028.13
2022-09-28T08:57:46.216Z,96026.53
2022-09-28T09:00:22.629Z,96024.16
2022-09-28T09:02:51.130Z,96024.31
2022-09-28T09:05:22.696Z,96023.88
2022-09-28T09:08:13.343Z,96025.66
2022-09-28T09:10:51.110Z,96023.22
2022-09-28T09:13:58.210Z,96020.03
2022-09-28T09:16:33.785Z,96026.97
2022-09-28T09:19:36.491Z,96026.50
2022-09-28T09:22:35.168Z,96015.91
2022-09-28T09:25:14.878Z,96017.34
2022-09-28T09:27:54.932Z,96023.03
2022-09-28T09:30:29.870Z,96011.75
2022-09-28T09:33:08.167Z,96017.72
2022-09-28T09:36:03.918Z,96008.94
2022-09-28T09:39:11.388Z,96013.63
2022-09-28T09:42:12.974Z,96020.56
2022-09-28T09:45:24.002Z,96010.22
2022-09-28T09:48:14.023Z,96018.41
2022-09-28T09:50:48.941Z,96011.38
2022-09-28T09:53:22.372Z,96015.53
2022-09-28T09:55:54.973Z,96016.56
2022-09-28T09:58:33.099Z,96010.19
2022-09-28T10:01:14.235Z,96009.06
2022-09-28T10:04:15.727Z,96004.53
2022-09-28T10:06:45.440Z,96003.97
2022-09-28T10:09:18.589Z,96003.25
2022-09-28T10:11:52.326Z,95991.94
2022-09-28T10:14:22.660Z,95995.63
2022-09-28T10:17:00.540Z,96004.63
2022-09-28T10:20:05.154Z,96010.16
2022-09-28T10:22:33.611Z,96015.34
2022-09-28T10:25:13.122Z,96001.09
2022-09-28T10:27:46.053Z,96001.56
2022-09-28T10:30:18.511Z,96005.19
2022-09-28T10:32:51.434Z,95997.94
2022-09-28T10:35:25.496Z,95996.97
2022-09-28T10:38:08.045Z,95986.75
2022-09-28T10:40:47.062Z,95978.81
2022-09-28T10:43:23.663Z,95979.06
2022-09-28T10:46:02.475Z,95972.59
2022-09-28T10:48:40.381Z,95987.00
2022-09-28T10:51:09.801Z,95988.19
2022-09-28T10:53:40.333Z,95989.06
2022-09-28T10:56:23.949Z,95984.97
2022-09-28T10:58:58.536Z,95987.97
2022-09-28T11:01:41.561Z,95979.69
2022-09-28T11:04:21.884Z,95970.25
2022-09-28T11:06:51.574Z,95967.53
2022-09-28T11:09:29.930Z,95962.84
2022-09-28T11:12:05.166Z,95962.53
2022-09-28T11:14:41.877Z,95950.31
2022-09-28T11:17:19.715Z,95951.41
2022-09-28T11:19:51.481Z,95946.97
2022-09-28T11:22:26.253Z,95946.94
2022-09-28T11:25:22.025Z,95943.03
2022-09-28T11:27:58.751Z,95937.47
2022-09-28T11:30:28.994Z,95932.78
2022-09-28T11:33:31.571Z,95934.44
2022-09-28T11:36:17.213Z,95930.31
2022-09-28T11:38:53.788Z,95922.41
2022-09-28T11:41:45.659Z,95917.88
2022-09-28T11:44:39.535Z,95912.25
2022-09-28T11:47:31.085Z,95907.88
2022-09-28T11:50:03.424Z,95911.34
2022-09-28T11:52:38.733Z,95909.72
2022-09-28T11:55:13.265Z,95905.41
2022-09-28T11:57:44.754Z,95904.75
2022-09-28T12:00:16.827Z,95891.31
2022-09-28T12:02:50.622Z,95894.00
2022-09-28T12:05:25.173Z,95888.75
2022-09-28T12:07:57.842Z,95879.25
2022-09-28T12:10:48.744Z,95880.75
2022-09-28T12:13:22.841Z,95877.94
2022-09-28T12:18:46.180Z,95881.19
2022-09-28T12:21:28.926Z,95881.97
2022-09-28T12:24:03.897Z,95884.06
2022-09-28T12:26:38.009Z,95888.34
2022-09-28T12:29:08.591Z,95883.75
2022-09-28T12:31:40.675Z,95878.28
2022-09-28T12:34:11.267Z,95874.09
2022-09-28T12:36:48.714Z,95864.91
2022-09-28T12:39:46.812Z,95849.78
2022-09-28T12:42:27.994Z,95846.66
2022-09-28T12:45:09.916Z,95839.88
2022-09-28T12:48:01.167Z,95830.56
2022-09-28T12:50:38.804Z,95835.28
2022-09-28T12:53:23.618Z,95831.31
2022-09-28T12:56:01.431Z,95829.91
2022-09-28T12:58:46.027Z,95837.16
2022-09-28T13:01:28.112Z,95836.75
2022-09-28T13:04:11.434Z,95840.59
2022-09-28T13:06:48.749Z,95820.88
2022-09-28T13:09:23.245Z,95825.75
2022-09-28T13:12:16.925Z,95832.06
2022-09-28T13:15:16.647Z,95830.19
2022-09-28T13:17:50.729Z,95831.09
2022-09-28T13:20:25.298Z,95833.28
2022-09-28T13:22:58.990Z,95827.41
2022-09-28T13:25:29.099Z,95835.94
2022-09-28T13:28:03.076Z,95829.25
2022-09-28T13:30:32.261Z,95834.16
2022-09-28T13:33:02.723Z,95844.56
2022-09-28T13:35:31.186Z,95842.53
2022-09-28T13:38:45.784Z,95846.72
2022-09-28T13:41:24.988Z,95836.44
2022-09-28T13:44:12.080Z,95838.41
2022-09-28T13:46:46.423Z,95839.97
2022-09-28T13:49:19.408Z,95839.97
2022-09-28T13:52:09.405Z,95834.19
2022-09-28T13:54:55.758Z,95845.78
2022-09-28T13:57:26.201Z,95843.06
2022-09-28T14:00:05.809Z,95834.00
2022-09-28T14:02:44.491Z,95840.97
2022-09-28T14:05:35.178Z,95845.00
2022-09-28T14:08:25.699Z,95843.47
2022-09-28T14:10:54.898Z,95844.41
2022-09-28T14:14:00.664Z,95842.53
2022-09-28T14:16:32.350Z,95853.69
2022-09-28T14:19:04.728Z,95855.13
2022-09-28T14:21:49.169Z,95848.69
2022-09-28T14:24:27.443Z,95859.00
2022-09-28T14:27:19.291Z,95857.38
2022-09-28T14:29:48.481Z,95858.28
2022-09-28T14:32:37.474Z,95853.41
2022-09-28T14:35:07.821Z,95851.00
2022-09-28T14:37:54.805Z,95857.19
2022-09-28T14:40:47.140Z,95854.16
2022-09-28T14:43:24.553Z,95853.53
2022-09-28T14:45:54.632Z,95847.50
2022-09-28T14:48:44.386Z,95844.69
2022-09-28T14:52:01.119Z,95858.38
2022-09-28T14:54:35.503Z,95852.50
2022-09-28T14:57:09.522Z,95867.50
2022-09-28T14:59:43.619Z,95865.25
2022-09-28T15:02:18.390Z,95860.13
2022-09-28T15:04:50.455Z,95863.53
2022-09-28T15:07:21.519Z,95856.91
2022-09-28T15:09:51.466Z,95866.41
2022-09-28T15:12:21.990Z,95864.97
2022-09-28T15:14:54.333Z,95863.09
2022-09-28T15:17:25.346Z,95873.63
2022-09-28T15:20:21.224Z,95861.94
2022-09-28T15:22:51.583Z,95857.38
2022-09-28T15:25:21.339Z,95856.75
2022-09-28T15:27:54.230Z,95859.13
2022-09-28T15:30:26.348Z,95867.63
2022-09-28T15:32:56.931Z,95876.38
2022-09-28T15:35:27.315Z,95879.41
2022-09-28T15:37:56.626Z,95878.00
2022-09-28T15:40:31.571Z,95882.09
2022-09-28T15:43:00.128Z,95886.66
2022-09-28T15:45:32.638Z,95881.31
2022-09-28T15:48:18.988Z,95882.69
2022-09-28T15:51:11.927Z,95879.94
2022-09-28T15:53:44.591Z,95879.94
2022-09-28T15:56:13.136Z,95884.56
2022-09-28T15:58:44.636Z,95886.13
2022-09-28T16:01:26.920Z,95895.34
2022-09-28T16:03:55.324Z,95905.28
2022-09-28T16:06:25.037Z,95899.09
2022-09-28T16:08:53.836Z,95907.88
2022-09-28T16:11:24.305Z,95915.13
2022-09-28T16:14:04.543Z,95915.13
2022-09-28T16:16:36.638Z,95910.16
2022-09-28T16:19:05.302Z,95910.47
2022-09-28T16:21:45.087Z,95915.44
2022-09-28T16:24:23.891Z,95918.19
2022-09-28T16:26:58.527Z,95918.44
2022-09-28T16:29:29.700Z,95918.94
2022-09-28T16:31:57.927Z,95916.16
2022-09-28T16:34:27.394Z,95910.50
2022-09-28T16:36:57.054Z,95917.72
2022-09-28T16:39:25.498Z,95917.25
2022-09-28T16:41:56.131Z,95924.91
2022-09-28T16:44:28.534Z,95918.88
2022-09-28T16:47:00.741Z,95923.59
2022-09-28T16:49:29.132Z,95928.78
2022-09-28T16:51:59.638Z,95929.03
2022-09-28T16:54:45.098Z,95934.50
2022-09-28T16:57:14.856Z,95933.13
2022-09-28T16:59:43.187Z,95939.81
2022-09-28T17:02:42.038Z,95942.31
2022-09-28T17:05:08.048Z,95937.25
2022-09-28T17:07:38.114Z,95942.16
2022-09-28T17:10:15.550Z,95939.06
2022-09-28T17:12:43.923Z,95935.97
2022-09-28T17:15:12.339Z,95933.50
2022-09-28T17:17:41.123Z,95922.97
2022-09-28T17:20:22.485Z,95928.59
2022-09-28T17:22:52.490Z,95931.47
2022-09-28T17:25:21.688Z,95923.50
2022-09-28T17:27:50.572Z,95918.81
2022-09-28T17:30:23.595Z,95917.16
2022-09-28T17:32:54.395Z,95909.22
2022-09-28T17:35:24.563Z,95911.03
2022-09-28T17:37:55.300Z,95912.91
2022-09-28T17:40:25.303Z,95907.16
2022-09-28T17:42:56.213Z,95917.63
2022-09-28T17:45:25.917Z,95924.69
2022-09-28T17:47:54.221Z,95917.88
2022-09-28T17:50:24.700Z,95924.19
2022-09-28T17:52:53.754Z,95922.38
2022-09-28T17:55:27.471Z,95918.09
2022-09-28T17:57:56.434Z,95925.88
2022-09-28T18:00:27.546Z,95925.63
2022-09-28T18:02:56.270Z,95939.50
2022-09-28T18:05:25.865Z,95944.75
2022-09-28T18:07:54.766Z,95947.56
2022-09-28T18:10:26.390Z,95946.50
2022-09-28T18:12:54.683Z,95949.00
2022-09-28T18:15:23.064Z,95958.50
2022-09-28T18:17:51.432Z,95944.13
2022-09-28T18:20:20.101Z,95946.78
2022-09-28T18:22:48.555Z,95947.06
2022-09-28T18:25:17.055Z,95949.81
2022-09-28T18:27:46.882Z,95948.25
2022-09-28T18:30:15.345Z,95942.16
2022-09-28T18:32:43.778Z,95944.03
2022-09-28T18:35:12.296Z,95955.50
2022-09-28T18:37:41.576Z,95961.31
2022-09-28T18:40:12.963Z,95953.81
2022-09-28T18:42:41.710Z,95949.69
2022-09-28T18:45:12.607Z,95947.03
2022-09-28T18:47:41.319Z,95950.28
2022-09-28T18:50:11.675Z,95949.59
2022-09-28T18:52:41.062Z,95951.47
2022-09-28T18:55:10.432Z,95941.19
2022-09-28T18:57:41.350Z,95948.19
2022-09-28T19:00:15.385Z,95955.38
2022-09-28T19:02:44.022Z,95949.34
2022-09-28T19:05:13.306Z,95949.25
2022-09-28T19:07:41.774Z,95954.47
2022-09-28T19:10:10.451Z,95952.13
2022-09-28T19:12:38.907Z,95958.81
2022-09-28T19:15:08.576Z,95970.13
2022-09-28T19:17:40.067Z,95963.25
2022-09-28T19:20:09.403Z,95952.84
2022-09-28T19:22:38.015Z,95952.00
2022-09-28T19:25:09.818Z,95952.94
2022-09-28T19:27:38.700Z,95963.41
2022-09-28T19:30:08.641Z,95970.97
2022-09-28T19:32:37.053Z,95965.22
2022-09-28T19:35:08.502Z,95957.41
2022-09-28T19:37:39.257Z,95951.47
2022-09-28T19:40:08.931Z,95960.09
2022-09-28T19:42:37.608Z,95958.34
2022-09-28T19:45:08.797Z,95967.66
2022-09-28T19:47:37.789Z,95969.41
2022-09-28T19:50:10.411Z,95973.81
2022-09-28T19:52:39.034Z,95976.88
2022-09-28T19:55:08.916Z,95977.66
2022-09-28T19:57:37.317Z,95971.41
2022-09-28T20:00:06.801Z,95969.50
2022-09-28T20:02:36.007Z,95971.22
2022-09-28T20:05:04.873Z,95973.66
2022-09-28T20:07:36.289Z,95973.66
2022-09-28T20:10:04.887Z,95979.22
2022-09-28T20:12:35.103Z,95987.66
2022-09-28T20:15:03.607Z,95984.19
2022-09-28T20:17:32.087Z,95985.13
2022-09-28T20:20:01.073Z,95973.72
2022-09-28T20:22:29.467Z,95978.13
2022-09-28T20:25:00.706Z,95976.59
2022-09-28T20:27:29.307Z,95980.06
2022-09-28T20:29:57.877Z,95980.44
2022-09-28T20:32:26.196Z,95976.03
2022-09-28T20:34:54.816Z,95983.81
2022-09-28T20:37:26.436Z,95999.31
2022-09-28T20:39:55.381Z,95986.84
2022-09-28T20:42:25.416Z,95983.44
2022-09-28T20:44:53.904Z,95978.84
2022-09-28T20:47:22.328Z,95975.78
2022-09-28T20:49:51.057Z,95971.41
2022-09-28T20:52:20.010Z,95969.50
2022-09-28T20:54:48.408Z,95962.94
2022-09-28T20:57:20.145Z,95968.81
2022-09-28T20:59:54.493Z,95968.16
2022-09-28T21:02:23.696Z,95969.06
2022-09-28T21:04:52.505Z,95970.66
2022-09-28T21:07:21.066Z,95978.41
2022-09-28T21:09:50.617Z,95981.19
2022-09-28T21:12:19.233Z,95980.16
2022-09-28T21:14:47.535Z,95981.06
2022-09-28T21:17:17.301Z,95978.50
2022-09-28T21:19:45.584Z,95989.53
2022-09-28T21:22:13.850Z,95980.06
2022-09-28T21:24:42.074Z,95996.13
2022-09-28T21:27:10.338Z,95992.94
2022-09-28T21:29:38.613Z,95992.31
2022-09-28T21:32:08.275Z,95999.28
2022-09-28T21:34:38.131Z,96000.13
2022-09-28T21:37:06.965Z,95997.66
2022-09-28T21:39:35.293Z,95990.53
2022-09-28T21:42:04.160Z,95981.88
2022-09-28T21:44:32.380Z,95985.22
2022-09-28T21:47:00.964Z,95972.66
2022-09-28T21:49:29.197Z,95970.50
2022-09-28T21:51:58.895Z,95969.06
2022-09-28T21:54:29.010Z,95969.81
2022-09-28T21:56:57.331Z,95969.63
2022-09-28T21:59:25.947Z,95981.59
2022-09-28T22:01:54.357Z,95991.31
2022-09-28T22:04:22.749Z,95992.97
2022-09-28T22:06:51.473Z,95996.19
2022-09-28T22:09:21.152Z,95996.28
2022-09-28T22:11:51.212Z,95993.69
2022-09-28T22:14:19.602Z,95995.44
2022-09-28T22:16:47.915Z,95997.03
2022-09-28T22:19:16.494Z,95995.34
2022-09-28T22:21:45.210Z,95991.84
2022-09-28T22:24:13.452Z,95989.97
2022-09-28T22:26:43.200Z,95988.44
2022-09-28T22:29:11.653Z,95982.19
2022-09-28T22:31:41.627Z,95993.56
2022-09-28T22:34:11.006Z,95987.47
2022-09-28T22:36:39.364Z,95987.31
2022-09-28T22:39:07.851Z,95972.41
2022-09-28T22:41:36.191Z,95981.47
2022-09-28T22:44:05.987Z,95995.94
2022-09-28T22:46:35.384Z,95996.19
2022-09-28T22:49:03.870Z,95993.56
2022-09-28T22:51:32.304Z,95998.31
2022-09-28T22:54:01.299Z,95983.09
2022-09-28T22:56:30.399Z,95992.69
2022-09-28T22:58:58.815Z,95989.84
2022-09-28T23:01:30.038Z,95992.66
2022-09-28T23:03:58.909Z,95997.69
2022-09-28T23:06:29.144Z,95998.59
2022-09-28T23:08:57.573Z,95992.69
2022-09-28T23:11:26.102Z,95994.69
2022-09-28T23:13:56.013Z,95984.25
2022-09-28T23:16:26.825Z,95976.84
2022-09-28T23:18:57.300Z,95985.84
2022-09-28T23:21:27.148Z,95978.28
2022-09-28T23:23:56.977Z,95966.44
2022-09-28T23:26:27.491Z,95980.56
2022-09-28T23:28:56.191Z,95970.09
2022-09-28T23:31:26.143Z,95966.59
2022-09-28T23:33:59.682Z,95971.78
2022-09-28T23:36:28.083Z,95986.38
2022-09-28T23:38:56.445Z,95972.91
2022-09-28T23:41:24.659Z,95977.06
2022-09-28T23:43:53.026Z,95979.00
2022-09-28T23:46:21.542Z,95975.00
2022-09-28T23:48:50.468Z,95984.19
2022-09-28T23:51:20.110Z,95991.69
2022-09-28T23:53:48.445Z,95993.28
2022-09-28T23:56:17.086Z,95995.66
2022-09-28T23:58:45.510Z,95988.81
